createdAt,value
2018-02-27T00:00:26.229Z,-9.32
2018-02-27T00:01:26.212Z,-9.26
2018-02-27T00:02:26.197Z,-9.20
2018-02-27T00:03:26.185Z,-9.18
2018-02-27T00:04:26.166Z,-9.11
2018-02-27T00:05:26.154Z,-9.12
2018-02-27T00:06:26.137Z,-9.02
2018-02-27T00:07:26.124Z,-9.10
2018-02-27T00:08:26.101Z,-9.10
2018-02-27T00:09:26.088Z,-9.15
2018-02-27T00:10:26.069Z,-9.14
2018-02-27T00:11:26.056Z,-9.25
2018-02-27T00:12:26.040Z,-9.29
2018-02-27T00:13:26.025Z,-9.26
2018-02-27T00:14:26.007Z,-9.29
2018-02-27T00:15:25.991Z,-9.29
2018-02-27T00:16:25.973Z,-9.29
2018-02-27T00:17:25.961Z,-9.29
2018-02-27T00:18:25.945Z,-9.28
2018-02-27T00:19:25.930Z,-9.37
2018-02-27T00:20:25.911Z,-9.36
2018-02-27T00:21:25.898Z,-9.41
2018-02-27T00:22:25.881Z,-9.47
2018-02-27T00:23:25.864Z,-9.45
2018-02-27T00:24:25.846Z,-9.48
2018-02-27T00:25:25.832Z,-9.51
2018-02-27T00:26:25.818Z,-9.54
2018-02-27T00:27:25.806Z,-9.62
2018-02-27T00:28:25.787Z,-9.56
2018-02-27T00:29:25.771Z,-9.66
2018-02-27T00:30:25.754Z,-9.61
2018-02-27T00:31:25.739Z,-9.65
2018-02-27T00:32:25.721Z,-9.66
2018-02-27T00:33:25.705Z,-9.69
2018-02-27T00:34:25.690Z,-9.77
2018-02-27T00:35:25.675Z,-9.69
2018-02-27T00:36:25.659Z,-9.83
2018-02-27T00:37:25.644Z,-9.81
2018-02-27T00:38:25.626Z,-9.80
2018-02-27T00:39:25.613Z,-9.79
2018-02-27T00:40:25.594Z,-9.86
2018-02-27T00:41:25.579Z,-9.80
2018-02-27T00:42:25.561Z,-9.79
2018-02-27T00:43:25.553Z,-9.83
2018-02-27T00:44:25.548Z,-9.84
2018-02-27T00:45:25.515Z,-9.81
2018-02-27T00:46:25.497Z,-9.84
2018-02-27T00:47:25.482Z,-9.81
2018-02-27T00:48:25.472Z,-9.80
2018-02-27T00:49:25.468Z,-9.81
2018-02-27T00:50:25.435Z,-9.83
2018-02-27T00:51:25.420Z,-9.84
2018-02-27T00:52:25.404Z,-9.87
2018-02-27T00:53:25.384Z,-9.80
2018-02-27T00:54:25.371Z,-9.92
2018-02-27T00:55:25.352Z,-9.94
2018-02-27T00:56:25.341Z,-9.92
2018-02-27T00:57:25.323Z,-9.92
2018-02-27T00:58:25.310Z,-9.86
2018-02-27T00:59:25.289Z,-9.80
2018-02-27T01:00:25.274Z,-9.84
2018-02-27T01:01:25.256Z,-9.86
2018-02-27T01:02:25.241Z,-9.84
2018-02-27T01:03:25.224Z,-9.86
2018-02-27T01:04:25.209Z,-9.87
2018-02-27T01:05:25.195Z,-9.84
2018-02-27T01:06:25.180Z,-9.83
2018-02-27T01:07:25.159Z,-9.89
2018-02-27T01:08:25.146Z,-9.81
2018-02-27T01:09:25.142Z,-9.81
2018-02-27T01:10:25.117Z,-9.84
2018-02-27T01:11:25.095Z,-9.87
2018-02-27T01:12:25.082Z,-9.92
2018-02-27T01:13:25.073Z,-9.94
2018-02-27T01:14:25.049Z,-9.84
2018-02-27T01:15:25.036Z,-9.81
2018-02-27T01:16:25.016Z,-9.98
2018-02-27T01:17:25.001Z,-9.90
2018-02-27T01:18:24.983Z,-9.95
2018-02-27T01:19:24.970Z,-9.92
2018-02-27T01:20:24.950Z,-10.04
2018-02-27T01:21:24.937Z,-10.12
2018-02-27T01:22:24.919Z,-10.05
2018-02-27T01:23:24.903Z,-10.07
2018-02-27T01:24:24.889Z,-10.01
2018-02-27T01:25:24.872Z,-10.18
2018-02-27T01:26:24.855Z,-10.12
2018-02-27T01:27:24.838Z,-10.15
2018-02-27T01:28:24.824Z,-10.08
2018-02-27T01:29:24.807Z,-10.25
2018-02-27T01:30:24.790Z,-10.15
2018-02-27T01:31:24.774Z,-10.16
2018-02-27T01:32:24.759Z,-10.16
2018-02-27T01:33:24.747Z,-10.28
2018-02-27T01:34:24.728Z,-10.28
2018-02-27T01:35:24.710Z,-10.26
2018-02-27T01:36:24.696Z,-10.28
2018-02-27T01:37:24.684Z,-10.33
2018-02-27T01:38:24.662Z,-10.33
2018-02-27T01:39:24.643Z,-10.39
2018-02-27T01:40:24.628Z,-10.33
2018-02-27T01:41:24.613Z,-10.34
2018-02-27T01:42:24.598Z,-10.33
2018-02-27T01:43:24.580Z,-10.33
2018-02-27T01:44:24.568Z,-10.22
2018-02-27T01:45:24.550Z,-10.21
2018-02-27T01:46:24.532Z,-10.21
2018-02-27T01:47:24.513Z,-10.22
2018-02-27T01:48:24.501Z,-10.19
2018-02-27T01:49:24.483Z,-10.19
2018-02-27T01:50:24.468Z,-10.26
2018-02-27T01:51:24.454Z,-10.19
2018-02-27T01:52:24.439Z,-10.23
2018-02-27T01:53:24.427Z,-10.15
2018-02-27T01:54:24.402Z,-10.22
2018-02-27T01:55:24.385Z,-10.25
2018-02-27T01:56:24.368Z,-10.30
2018-02-27T01:57:24.354Z,-10.30
2018-02-27T01:58:24.338Z,-10.41
2018-02-27T01:59:24.322Z,-10.31
2018-02-27T02:00:24.304Z,-10.33
2018-02-27T02:01:24.295Z,-10.44
2018-02-27T02:02:24.278Z,-10.39
2018-02-27T02:03:24.256Z,-10.40
2018-02-27T02:04:24.240Z,-10.47
2018-02-27T02:05:24.221Z,-10.37
2018-02-27T02:06:24.207Z,-10.51
2018-02-27T02:07:24.193Z,-10.54
2018-02-27T02:08:24.180Z,-10.61
2018-02-27T02:09:24.158Z,-10.51
2018-02-27T02:10:24.145Z,-10.68
2018-02-27T02:11:24.125Z,-10.62
2018-02-27T02:12:24.114Z,-10.55
2018-02-27T02:13:24.093Z,-10.47
2018-02-27T02:14:24.074Z,-10.58
2018-02-27T02:15:24.061Z,-10.52
2018-02-27T02:16:24.044Z,-10.51
2018-02-27T02:17:24.028Z,-10.57
2018-02-27T02:18:24.019Z,-10.51
2018-02-27T02:19:23.996Z,-10.55
2018-02-27T02:20:23.979Z,-10.50
2018-02-27T02:21:23.968Z,-10.50
2018-02-27T02:22:23.944Z,-10.64
2018-02-27T02:23:23.928Z,-10.57
2018-02-27T02:24:23.916Z,-10.62
2018-02-27T02:25:23.898Z,-10.58
2018-02-27T02:26:23.881Z,-10.57
2018-02-27T02:27:23.866Z,-10.62
2018-02-27T02:28:23.848Z,-10.54
2018-02-27T02:29:23.832Z,-10.55
2018-02-27T02:30:23.820Z,-10.43
2018-02-27T02:31:23.799Z,-10.41
2018-02-27T02:32:23.782Z,-10.44
2018-02-27T02:33:23.776Z,-10.41
2018-02-27T02:34:23.751Z,-10.41
2018-02-27T02:35:23.735Z,-10.40
2018-02-27T02:36:23.717Z,-10.46
2018-02-27T02:37:23.699Z,-10.54
2018-02-27T02:38:23.685Z,-10.51
2018-02-27T02:39:23.666Z,-10.52
2018-02-27T02:40:23.651Z,-10.58
2018-02-27T02:41:23.636Z,-10.50
2018-02-27T02:42:23.618Z,-10.54
2018-02-27T02:43:23.607Z,-10.57
2018-02-27T02:44:23.586Z,-10.58
2018-02-27T02:45:23.566Z,-10.57
2018-02-27T02:46:23.550Z,-10.55
2018-02-27T02:47:23.534Z,-10.61
2018-02-27T02:48:23.518Z,-10.46
2018-02-27T02:49:23.501Z,-10.51
2018-02-27T02:50:23.484Z,-10.44
2018-02-27T02:51:23.473Z,-10.52
2018-02-27T02:52:23.458Z,-10.50
2018-02-27T02:53:23.439Z,-10.58
2018-02-27T02:54:23.418Z,-10.57
2018-02-27T02:55:23.400Z,-10.62
2018-02-27T02:56:23.384Z,-10.62
2018-02-27T02:57:23.370Z,-10.58
2018-02-27T02:58:23.347Z,-10.50
2018-02-27T02:59:23.335Z,-10.54
2018-02-27T03:00:23.318Z,-10.51
2018-02-27T03:01:23.308Z,-10.51
2018-02-27T03:02:23.284Z,-10.46
2018-02-27T03:03:23.272Z,-10.52
2018-02-27T03:04:23.252Z,-10.60
2018-02-27T03:05:23.239Z,-10.62
2018-02-27T03:06:23.218Z,-10.64
2018-02-27T03:07:23.206Z,-10.58
2018-02-27T03:08:23.186Z,-10.69
2018-02-27T03:09:23.170Z,-10.68
2018-02-27T03:10:23.153Z,-10.78
2018-02-27T03:11:23.137Z,-10.78
2018-02-27T03:12:23.122Z,-10.86
2018-02-27T03:13:23.103Z,-10.97
2018-02-27T03:14:23.087Z,-10.90
2018-02-27T03:15:23.071Z,-10.94
2018-02-27T03:16:23.052Z,-10.81
2018-02-27T03:17:23.040Z,-10.86
2018-02-27T03:18:23.025Z,-10.78
2018-02-27T03:19:23.004Z,-10.69
2018-02-27T03:20:22.996Z,-10.73
2018-02-27T03:21:22.971Z,-10.61
2018-02-27T03:22:22.951Z,-10.64
2018-02-27T03:23:22.937Z,-10.71
2018-02-27T03:24:22.924Z,-10.79
2018-02-27T03:25:22.908Z,-10.78
2018-02-27T03:26:22.886Z,-10.78
2018-02-27T03:27:22.870Z,-10.75
2018-02-27T03:28:22.855Z,-10.82
2018-02-27T03:29:22.840Z,-10.86
2018-02-27T03:30:22.828Z,-10.93
2018-02-27T03:31:22.809Z,-10.94
2018-02-27T03:32:22.788Z,-10.88
2018-02-27T03:33:22.770Z,-10.91
2018-02-27T03:34:22.753Z,-10.81
2018-02-27T03:35:22.740Z,-10.93
2018-02-27T03:36:22.721Z,-10.94
2018-02-27T03:37:22.706Z,-10.91
2018-02-27T03:38:22.687Z,-10.93
2018-02-27T03:39:22.672Z,-11.04
2018-02-27T03:40:22.654Z,-10.98
2018-02-27T03:41:22.638Z,-11.04
2018-02-27T03:42:22.621Z,-10.98
2018-02-27T03:43:22.605Z,-10.98
2018-02-27T03:44:22.589Z,-10.97
2018-02-27T03:45:22.573Z,-10.88
2018-02-27T03:46:22.556Z,-10.90
2018-02-27T03:47:22.539Z,-10.91
2018-02-27T03:48:22.525Z,-10.88
2018-02-27T03:49:22.506Z,-10.88
2018-02-27T03:50:22.496Z,-10.95
2018-02-27T03:51:22.472Z,-10.91
2018-02-27T03:52:22.458Z,-10.94
2018-02-27T03:53:22.439Z,-10.88
2018-02-27T03:54:22.423Z,-10.91
2018-02-27T03:55:22.405Z,-10.97
2018-02-27T03:56:22.394Z,-11.04
2018-02-27T03:57:22.376Z,-11.06
2018-02-27T03:58:22.358Z,-11.11
2018-02-27T03:59:22.340Z,-10.98
2018-02-27T04:00:22.322Z,-11.12
2018-02-27T04:01:22.308Z,-11.11
2018-02-27T04:02:22.290Z,-11.16
2018-02-27T04:03:22.273Z,-11.09
2018-02-27T04:04:22.260Z,-11.12
2018-02-27T04:05:22.240Z,-11.06
2018-02-27T04:06:22.224Z,-11.01
2018-02-27T04:07:22.207Z,-11.03
2018-02-27T04:08:22.189Z,-11.08
2018-02-27T04:09:22.173Z,-11.11
2018-02-27T04:10:22.156Z,-11.13
2018-02-27T04:11:22.136Z,-11.21
2018-02-27T04:12:22.123Z,-11.13
2018-02-27T04:13:22.107Z,-11.15
2018-02-27T04:14:22.088Z,-11.22
2018-02-27T04:15:22.071Z,-11.21
2018-02-27T04:16:22.058Z,-11.08
2018-02-27T04:17:22.039Z,-11.00
2018-02-27T04:18:22.023Z,-11.09
2018-02-27T04:19:22.006Z,-11.08
2018-02-27T04:20:21.989Z,-10.94
2018-02-27T04:21:21.971Z,-11.01
2018-02-27T04:22:21.954Z,-11.09
2018-02-27T04:23:21.938Z,-11.08
2018-02-27T04:24:21.927Z,-11.12
2018-02-27T04:25:21.905Z,-11.09
2018-02-27T04:26:21.890Z,-11.22
2018-02-27T04:27:21.871Z,-11.09
2018-02-27T04:28:21.853Z,-11.09
2018-02-27T04:29:21.840Z,-11.09
2018-02-27T04:30:21.821Z,-11.06
2018-02-27T04:31:21.805Z,-11.11
2018-02-27T04:32:21.787Z,-11.01
2018-02-27T04:33:21.770Z,-11.12
2018-02-27T04:34:21.758Z,-11.16
2018-02-27T04:35:21.738Z,-11.18
2018-02-27T04:36:21.721Z,-11.26
2018-02-27T04:37:21.704Z,-11.22
2018-02-27T04:38:21.691Z,-11.16
2018-02-27T04:39:21.667Z,-11.18
2018-02-27T04:40:21.654Z,-11.23
2018-02-27T04:41:21.639Z,-11.16
2018-02-27T04:42:21.621Z,-11.23
2018-02-27T04:43:21.606Z,-11.13
2018-02-27T04:44:21.590Z,-11.30
2018-02-27T04:45:21.573Z,-11.18
2018-02-27T04:46:21.557Z,-11.21
2018-02-27T04:47:21.536Z,-11.30
2018-02-27T04:48:21.520Z,-11.21
2018-02-27T04:49:21.504Z,-11.23
2018-02-27T04:50:21.485Z,-11.18
2018-02-27T04:51:21.470Z,-11.22
2018-02-27T04:52:21.449Z,-11.29
2018-02-27T04:53:21.440Z,-11.30
2018-02-27T04:54:21.426Z,-11.27
2018-02-27T04:55:21.403Z,-11.23
2018-02-27T04:56:21.386Z,-11.34
2018-02-27T04:57:21.374Z,-11.47
2018-02-27T04:58:21.353Z,-11.26
2018-02-27T04:59:21.336Z,-11.32
2018-02-27T05:00:21.322Z,-11.21
2018-02-27T05:01:21.301Z,-11.23
2018-02-27T05:02:21.286Z,-11.32
2018-02-27T05:03:21.277Z,-11.27
2018-02-27T05:04:21.254Z,-11.34
2018-02-27T05:05:21.230Z,-11.33
2018-02-27T05:06:21.217Z,-11.32
2018-02-27T05:07:21.200Z,-11.29
2018-02-27T05:08:21.198Z,-11.30
2018-02-27T05:09:21.168Z,-11.32
2018-02-27T05:10:21.150Z,-11.29
2018-02-27T05:11:21.137Z,-11.29
2018-02-27T05:12:21.119Z,-11.42
2018-02-27T05:13:21.101Z,-11.39
2018-02-27T05:14:21.084Z,-11.29
2018-02-27T05:15:21.067Z,-11.30
2018-02-27T05:16:21.058Z,-11.26
2018-02-27T05:17:21.034Z,-11.29
2018-02-27T05:18:21.020Z,-11.19
2018-02-27T05:19:21.000Z,-11.21
2018-02-27T05:20:20.985Z,-11.16
2018-02-27T05:21:20.970Z,-11.23
2018-02-27T05:22:20.951Z,-11.21
2018-02-27T05:23:20.932Z,-11.33
2018-02-27T05:24:20.927Z,-11.30
2018-02-27T05:25:20.902Z,-11.34
2018-02-27T05:26:20.882Z,-11.26
2018-02-27T05:27:20.863Z,-11.19
2018-02-27T05:28:20.850Z,-11.18
2018-02-27T05:29:20.833Z,-11.06
2018-02-27T05:30:20.815Z,-11.13
2018-02-27T05:31:20.799Z,-10.98
2018-02-27T05:32:20.783Z,-11.12
2018-02-27T05:33:20.766Z,-11.13
2018-02-27T05:34:20.761Z,-11.13
2018-02-27T05:35:20.731Z,-11.12
2018-02-27T05:36:20.714Z,-11.08
2018-02-27T05:37:20.700Z,-11.12
2018-02-27T05:38:20.681Z,-11.08
2018-02-27T05:39:20.669Z,-11.15
2018-02-27T05:40:20.645Z,-11.06
2018-02-27T05:41:20.632Z,-11.00
2018-02-27T05:42:20.615Z,-11.04
2018-02-27T05:43:20.596Z,-11.16
2018-02-27T05:44:20.584Z,-11.03
2018-02-27T05:45:20.567Z,-10.97
2018-02-27T05:46:20.546Z,-10.98
2018-02-27T05:47:20.533Z,-11.00
2018-02-27T05:48:20.513Z,-11.01
2018-02-27T05:49:20.495Z,-10.94
2018-02-27T05:50:20.480Z,-10.91
2018-02-27T05:51:20.463Z,-10.95
2018-02-27T05:52:20.451Z,-11.03
2018-02-27T05:53:20.425Z,-10.94
2018-02-27T05:54:20.414Z,-11.01
2018-02-27T05:55:20.398Z,-10.98
2018-02-27T05:56:20.380Z,-10.98
2018-02-27T05:57:20.365Z,-10.98
2018-02-27T05:58:20.346Z,-10.91
2018-02-27T05:59:20.329Z,-10.88
2018-02-27T06:00:20.315Z,-10.94
2018-02-27T06:01:20.295Z,-10.90
2018-02-27T06:02:20.295Z,-10.91
2018-02-27T06:03:20.262Z,-10.88
2018-02-27T06:04:20.250Z,-11.01
2018-02-27T06:05:20.228Z,-11.04
2018-02-27T06:06:20.209Z,-11.06
2018-02-27T06:07:20.193Z,-10.90
2018-02-27T06:08:20.176Z,-10.97
2018-02-27T06:09:20.158Z,-11.00
2018-02-27T06:10:20.139Z,-11.00
2018-02-27T06:11:20.124Z,-10.95
2018-02-27T06:12:20.109Z,-11.00
2018-02-27T06:13:20.094Z,-10.94
2018-02-27T06:14:20.079Z,-11.01
2018-02-27T06:15:20.057Z,-10.93
2018-02-27T06:16:20.043Z,-10.94
2018-02-27T06:17:20.024Z,-11.00
2018-02-27T06:18:20.006Z,-11.00
2018-02-27T06:19:19.989Z,-11.04
2018-02-27T06:20:19.973Z,-11.03
2018-02-27T06:21:19.955Z,-11.00
2018-02-27T06:22:19.939Z,-11.00
2018-02-27T06:23:19.940Z,-10.88
2018-02-27T06:24:19.921Z,-10.95
2018-02-27T06:25:19.887Z,-10.90
2018-02-27T06:26:19.874Z,-10.95
2018-02-27T06:27:19.858Z,-10.88
2018-02-27T06:28:19.836Z,-10.83
2018-02-27T06:29:19.822Z,-10.79
2018-02-27T06:30:19.816Z,-10.83
2018-02-27T06:31:19.813Z,-10.76
2018-02-27T06:32:19.770Z,-10.72
2018-02-27T06:33:19.754Z,-10.58
2018-02-27T06:34:19.737Z,-10.64
2018-02-27T06:35:19.721Z,-10.55
2018-02-27T06:36:19.706Z,-10.52
2018-02-27T06:37:19.711Z,-10.37
2018-02-27T06:38:19.671Z,-10.36
2018-02-27T06:39:19.657Z,-10.31
2018-02-27T06:40:19.635Z,-10.13
2018-02-27T06:41:19.620Z,-10.12
2018-02-27T06:42:19.604Z,-10.15
2018-02-27T06:43:19.587Z,-10.08
2018-02-27T06:44:19.576Z,-10.02
2018-02-27T06:45:19.553Z,-9.92
2018-02-27T06:46:19.536Z,-9.98
2018-02-27T06:47:19.518Z,-9.86
2018-02-27T06:48:19.510Z,-9.81
2018-02-27T06:49:19.487Z,-9.84
2018-02-27T06:50:19.470Z,-9.72
2018-02-27T06:51:19.454Z,-9.68
2018-02-27T06:52:19.443Z,-9.51
2018-02-27T06:53:19.423Z,-9.54
2018-02-27T06:54:19.399Z,-9.47
2018-02-27T06:55:19.389Z,-9.45
2018-02-27T06:56:19.371Z,-9.33
2018-02-27T06:57:19.356Z,-9.29
2018-02-27T06:58:19.340Z,-9.18
2018-02-27T06:59:19.323Z,-9.25
2018-02-27T07:00:19.317Z,-9.12
2018-02-27T07:01:19.289Z,-9.12
2018-02-27T07:02:19.276Z,-9.04
2018-02-27T07:03:19.259Z,-9.04
2018-02-27T07:04:19.242Z,-8.91
2018-02-27T07:05:19.225Z,-8.83
2018-02-27T07:06:19.226Z,-8.75
2018-02-27T07:07:19.192Z,-8.63
2018-02-27T07:08:19.177Z,-8.47
2018-02-27T07:09:19.160Z,-8.44
2018-02-27T07:10:19.152Z,-8.44
2018-02-27T07:11:19.127Z,-8.29
2018-02-27T07:12:19.109Z,-8.19
2018-02-27T07:13:19.096Z,-8.09
2018-02-27T07:14:19.082Z,-8.02
2018-02-27T07:15:19.064Z,-7.89
2018-02-27T07:16:19.047Z,-7.80
2018-02-27T07:17:19.038Z,-7.68
2018-02-27T07:18:19.015Z,-7.68
2018-02-27T07:19:19.000Z,-7.61
2018-02-27T07:20:18.982Z,-7.31
2018-02-27T07:21:18.971Z,-7.30
2018-02-27T07:22:18.952Z,-7.23
2018-02-27T07:23:18.937Z,-7.15
2018-02-27T07:24:18.921Z,-7.01
2018-02-27T07:25:18.908Z,-6.92
2018-02-27T07:26:18.891Z,-6.80
2018-02-27T07:27:18.872Z,-6.97
2018-02-27T07:28:18.865Z,-6.77
2018-02-27T07:29:18.845Z,-6.77
2018-02-27T07:30:18.825Z,-6.66
2018-02-27T07:31:18.816Z,-6.63
2018-02-27T07:32:18.796Z,-6.47
2018-02-27T07:33:18.787Z,-6.50
2018-02-27T07:34:18.765Z,-6.36
2018-02-27T07:35:18.796Z,-6.32
2018-02-27T07:36:18.736Z,-6.32
2018-02-27T07:37:18.721Z,-6.34
2018-02-27T07:38:18.705Z,-6.52
2018-02-27T07:39:18.691Z,-6.40
2018-02-27T07:40:18.677Z,-6.40
2018-02-27T07:41:18.666Z,-6.43
2018-02-27T07:42:18.647Z,-6.47
2018-02-27T07:43:18.631Z,-6.42
2018-02-27T07:44:18.615Z,-6.50
2018-02-27T07:45:18.600Z,-6.52
2018-02-27T07:46:18.584Z,-6.44
2018-02-27T07:47:18.618Z,-6.49
2018-02-27T07:48:18.555Z,-6.63
2018-02-27T07:49:18.537Z,-6.50
2018-02-27T07:50:18.525Z,-6.58
2018-02-27T07:51:18.510Z,-6.49
2018-02-27T07:52:18.493Z,-6.52
2018-02-27T07:53:18.480Z,-6.55
2018-02-27T07:54:18.464Z,-6.58
2018-02-27T07:55:18.453Z,-6.52
2018-02-27T07:56:18.435Z,-6.58
2018-02-27T07:57:18.419Z,-6.44
2018-02-27T07:58:18.405Z,-6.52
2018-02-27T07:59:18.394Z,-6.54
2018-02-27T08:00:18.375Z,-6.44
2018-02-27T08:01:18.364Z,-6.58
2018-02-27T08:02:18.344Z,-6.50
2018-02-27T08:03:18.329Z,-6.49
2018-02-27T08:04:18.316Z,-6.52
2018-02-27T08:05:18.296Z,-6.54
2018-02-27T08:06:18.291Z,-6.43
2018-02-27T08:07:18.271Z,-6.40
2018-02-27T08:08:18.255Z,-6.28
2018-02-27T08:09:18.241Z,-6.34
2018-02-27T08:10:18.227Z,-6.40
2018-02-27T08:11:18.211Z,-6.31
2018-02-27T08:12:18.200Z,-6.36
2018-02-27T08:13:18.181Z,-6.26
2018-02-27T08:14:18.165Z,-6.29
2018-02-27T08:15:18.150Z,-6.26
2018-02-27T08:16:18.135Z,-6.32
2018-02-27T08:17:18.117Z,-6.22
2018-02-27T08:18:18.105Z,-6.16
2018-02-27T08:19:18.092Z,-6.18
2018-02-27T08:20:18.076Z,-6.10
2018-02-27T08:21:18.071Z,-6.10
2018-02-27T08:22:18.047Z,-6.00
2018-02-27T08:23:18.029Z,-6.05
2018-02-27T08:24:18.019Z,-6.03
2018-02-27T08:25:18.001Z,-6.05
2018-02-27T08:26:17.987Z,-5.98
2018-02-27T08:27:17.969Z,-5.98
2018-02-27T08:28:17.956Z,-5.97
2018-02-27T08:29:17.944Z,-5.94
2018-02-27T08:30:17.928Z,-5.79
2018-02-27T08:31:17.911Z,-5.74
2018-02-27T08:32:17.898Z,-5.57
2018-02-27T08:33:17.883Z,-5.65
2018-02-27T08:34:17.868Z,-5.54
2018-02-27T08:35:17.852Z,-5.50
2018-02-27T08:36:17.839Z,-5.47
2018-02-27T08:37:17.824Z,-5.50
2018-02-27T08:38:17.808Z,-5.53
2018-02-27T08:39:17.799Z,-5.39
2018-02-27T08:40:17.781Z,-5.22
2018-02-27T08:41:17.767Z,-5.10
2018-02-27T08:42:17.750Z,-5.17
2018-02-27T08:43:17.736Z,-5.06
2018-02-27T08:44:17.767Z,-4.99
2018-02-27T08:45:17.707Z,-5.07
2018-02-27T08:46:17.695Z,-5.07
2018-02-27T08:47:17.677Z,-5.08
2018-02-27T08:48:17.664Z,-5.07
2018-02-27T08:49:17.648Z,-4.99
2018-02-27T08:50:17.633Z,-4.95
2018-02-27T08:51:17.627Z,-4.92
2018-02-27T08:52:17.607Z,-4.89
2018-02-27T08:53:17.592Z,-5.22
2018-02-27T08:54:17.577Z,-5.47
2018-02-27T08:55:17.562Z,-5.68
2018-02-27T08:56:17.548Z,-5.39
2018-02-27T08:57:17.537Z,-5.35
2018-02-27T08:58:17.519Z,-5.29
2018-02-27T08:59:17.507Z,-5.25
2018-02-27T09:00:17.491Z,-5.07
2018-02-27T09:01:17.481Z,-4.96
2018-02-27T09:02:17.462Z,-4.90
2018-02-27T09:03:17.446Z,-4.83
2018-02-27T09:04:17.437Z,-4.83
2018-02-27T09:05:17.421Z,-4.74
2018-02-27T09:06:17.407Z,-4.71
2018-02-27T09:07:17.391Z,-4.77
2018-02-27T09:08:17.377Z,-4.71
2018-02-27T09:09:17.362Z,-4.78
2018-02-27T09:10:17.346Z,-4.61
2018-02-27T09:11:17.338Z,-4.58
2018-02-27T09:12:17.320Z,-4.42
2018-02-27T09:13:17.310Z,-4.38
2018-02-27T09:14:17.292Z,-4.24
2018-02-27T09:15:17.280Z,-4.25
2018-02-27T09:16:17.268Z,-4.56
2018-02-27T09:17:17.253Z,-4.32
2018-02-27T09:18:17.239Z,-4.15
2018-02-27T09:19:17.258Z,-4.01
2018-02-27T09:20:17.271Z,-3.93
2018-02-27T09:21:17.198Z,-3.76
2018-02-27T09:22:17.184Z,-3.60
2018-02-27T09:23:17.171Z,-3.46
2018-02-27T09:24:17.156Z,-3.85
2018-02-27T09:25:17.144Z,-3.88
2018-02-27T09:26:17.130Z,-3.72
2018-02-27T09:27:17.152Z,-3.46
2018-02-27T09:28:17.103Z,-3.33
2018-02-27T09:29:17.094Z,-3.38
2018-02-27T09:30:17.076Z,-3.25
2018-02-27T09:31:17.071Z,-3.25
2018-02-27T09:32:17.048Z,-3.23
2018-02-27T09:33:17.037Z,-3.21
2018-02-27T09:34:17.022Z,-3.20
2018-02-27T09:35:17.009Z,-3.09
2018-02-27T09:36:16.998Z,-3.36
2018-02-27T09:37:16.992Z,-3.23
2018-02-27T09:38:16.969Z,-3.41
2018-02-27T09:39:16.959Z,-3.35
2018-02-27T09:40:16.944Z,-3.10
2018-02-27T09:41:16.929Z,-3.02
2018-02-27T09:42:16.917Z,-2.89
2018-02-27T09:43:16.908Z,-2.78
2018-02-27T09:44:16.896Z,-2.71
2018-02-27T09:45:16.879Z,-2.79
2018-02-27T09:46:16.866Z,-2.94
2018-02-27T09:47:16.852Z,-2.85
2018-02-27T09:48:16.841Z,-2.78
2018-02-27T09:49:16.828Z,-2.71
2018-02-27T09:50:16.815Z,-3.07
2018-02-27T09:51:16.800Z,-3.21
2018-02-27T09:52:16.789Z,-3.18
2018-02-27T09:53:16.779Z,-2.99
2018-02-27T09:54:16.764Z,-2.99
2018-02-27T09:55:16.754Z,-2.94
2018-02-27T09:56:16.739Z,-3.06
2018-02-27T09:57:16.726Z,-3.23
2018-02-27T09:58:16.713Z,-3.62
2018-02-27T09:59:16.702Z,-3.91
2018-02-27T10:00:16.685Z,-3.79
2018-02-27T10:01:16.677Z,-3.46
2018-02-27T10:02:16.661Z,-3.33
2018-02-27T10:03:16.650Z,-3.36
2018-02-27T10:04:16.638Z,-3.24
2018-02-27T10:05:16.628Z,-3.15
2018-02-27T10:06:16.614Z,-3.12
2018-02-27T10:07:16.598Z,-3.38
2018-02-27T10:08:16.589Z,-3.20
2018-02-27T10:09:16.573Z,-3.20
2018-02-27T10:10:16.562Z,-3.38
2018-02-27T10:11:16.547Z,-3.21
2018-02-27T10:12:16.540Z,-2.96
2018-02-27T10:13:16.525Z,-2.88
2018-02-27T10:14:16.511Z,-2.78
2018-02-27T10:15:16.497Z,-2.67
2018-02-27T10:16:16.488Z,-2.78
2018-02-27T10:17:16.473Z,-2.91
2018-02-27T10:18:16.511Z,-3.00
2018-02-27T10:19:16.447Z,-2.99
2018-02-27T10:20:16.439Z,-3.07
2018-02-27T10:21:16.426Z,-3.10
2018-02-27T10:22:16.410Z,-3.05
2018-02-27T10:23:16.395Z,-2.97
2018-02-27T10:24:16.384Z,-2.81
2018-02-27T10:25:16.372Z,-3.02
2018-02-27T10:26:16.359Z,-2.92
2018-02-27T10:27:16.345Z,-3.00
2018-02-27T10:28:16.333Z,-2.88
2018-02-27T10:29:16.336Z,-2.78
2018-02-27T10:30:16.311Z,-2.73
2018-02-27T10:31:16.298Z,-2.71
2018-02-27T10:32:16.282Z,-2.74
2018-02-27T10:33:16.271Z,-2.78
2018-02-27T10:34:16.256Z,-2.84
2018-02-27T10:35:16.248Z,-2.77
2018-02-27T10:36:16.232Z,-2.79
2018-02-27T10:37:16.219Z,-2.77
2018-02-27T10:38:16.206Z,-2.77
2018-02-27T10:39:16.196Z,-2.70
2018-02-27T10:40:16.181Z,-2.71
2018-02-27T10:41:16.169Z,-2.70
2018-02-27T10:42:16.162Z,-2.63
2018-02-27T10:43:16.147Z,-2.78
2018-02-27T10:44:16.127Z,-2.71
2018-02-27T10:45:16.118Z,-2.68
2018-02-27T10:46:16.104Z,-2.71
2018-02-27T10:47:16.093Z,-2.85
2018-02-27T10:48:16.087Z,-2.78
2018-02-27T10:49:16.068Z,-2.56
2018-02-27T10:50:16.054Z,-2.30
2018-02-27T10:51:16.040Z,-2.52
2018-02-27T10:52:16.029Z,-2.32
2018-02-27T10:53:16.017Z,-2.40
2018-02-27T10:54:16.003Z,-2.42
2018-02-27T10:55:15.990Z,-2.42
2018-02-27T10:56:15.978Z,-2.40
2018-02-27T10:57:15.974Z,-2.29
2018-02-27T10:58:15.954Z,-2.24
2018-02-27T10:59:15.942Z,-2.15
2018-02-27T11:00:15.929Z,-2.21
2018-02-27T11:01:15.916Z,-2.45
2018-02-27T11:02:15.905Z,-2.29
2018-02-27T11:03:15.893Z,-2.06
2018-02-27T11:04:15.878Z,-1.79
2018-02-27T11:05:15.868Z,-1.74
2018-02-27T11:06:15.857Z,-1.62
2018-02-27T11:07:15.841Z,-1.87
2018-02-27T11:08:15.830Z,-1.95
2018-02-27T11:09:15.818Z,-1.74
2018-02-27T11:10:15.802Z,-1.76
2018-02-27T11:11:15.790Z,-1.77
2018-02-27T11:12:15.781Z,-1.79
2018-02-27T11:13:15.770Z,-1.76
2018-02-27T11:14:15.759Z,-1.73
2018-02-27T11:15:15.741Z,-1.74
2018-02-27T11:16:15.732Z,-1.80
2018-02-27T11:17:15.720Z,-1.92
2018-02-27T11:18:15.701Z,-2.16
2018-02-27T11:19:15.691Z,-2.52
2018-02-27T11:20:15.681Z,-2.52
2018-02-27T11:21:15.673Z,-2.39
2018-02-27T11:22:15.698Z,-2.42
2018-02-27T11:23:15.648Z,-2.35
2018-02-27T11:24:15.629Z,-2.20
2018-02-27T11:25:15.620Z,-2.15
2018-02-27T11:26:15.607Z,-2.06
2018-02-27T11:27:15.596Z,-1.95
2018-02-27T11:28:15.585Z,-1.87
2018-02-27T11:29:15.571Z,-2.12
2018-02-27T11:30:15.568Z,-2.02
2018-02-27T11:31:15.545Z,-1.77
2018-02-27T11:32:15.533Z,-1.74
2018-02-27T11:33:15.523Z,-1.67
2018-02-27T11:34:15.512Z,-1.58
2018-02-27T11:35:15.496Z,-1.58
2018-02-27T11:36:15.490Z,-1.56
2018-02-27T11:37:15.472Z,-1.56
2018-02-27T11:38:15.468Z,-1.58
2018-02-27T11:39:15.449Z,-1.54
2018-02-27T11:40:15.436Z,-1.49
2018-02-27T11:41:15.425Z,-1.46
2018-02-27T11:42:15.410Z,-1.73
2018-02-27T11:43:15.401Z,-1.91
2018-02-27T11:44:15.387Z,-2.13
2018-02-27T11:45:15.377Z,-1.95
2018-02-27T11:46:15.364Z,-2.21
2018-02-27T11:47:15.351Z,-2.45
2018-02-27T11:48:15.340Z,-2.48
2018-02-27T11:49:15.326Z,-2.30
2018-02-27T11:50:15.313Z,-2.16
2018-02-27T11:51:15.304Z,-2.13
2018-02-27T11:52:15.295Z,-1.98
2018-02-27T11:53:15.278Z,-1.85
2018-02-27T11:54:15.264Z,-1.79
2018-02-27T11:55:15.259Z,-1.79
2018-02-27T11:56:15.242Z,-1.94
2018-02-27T11:57:15.242Z,-2.00
2018-02-27T11:58:15.216Z,-1.82
2018-02-27T11:59:15.206Z,-1.67
2018-02-27T12:00:15.193Z,-1.79
2018-02-27T12:01:15.182Z,-1.56
2018-02-27T12:02:15.168Z,-1.64
2018-02-27T12:03:15.150Z,-1.79
2018-02-27T12:04:15.154Z,-1.80
2018-02-27T12:05:15.135Z,-1.74
2018-02-27T12:06:15.119Z,-2.20
2018-02-27T12:07:15.109Z,-2.02
2018-02-27T12:08:15.149Z,-1.94
2018-02-27T12:09:15.084Z,-1.74
2018-02-27T12:10:15.074Z,-2.00
2018-02-27T12:11:15.060Z,-2.06
2018-02-27T12:12:15.047Z,-1.84
2018-02-27T12:13:15.037Z,-1.77
2018-02-27T12:14:15.023Z,-1.80
2018-02-27T12:15:15.012Z,-1.69
2018-02-27T12:16:14.997Z,-1.77
2018-02-27T12:17:14.992Z,-1.70
2018-02-27T12:18:14.973Z,-1.67
2018-02-27T12:19:14.962Z,-1.62
2018-02-27T12:20:14.950Z,-1.58
2018-02-27T12:21:14.940Z,-1.51
2018-02-27T12:22:14.930Z,-1.27
2018-02-27T12:23:14.914Z,-1.45
2018-02-27T12:24:14.903Z,-1.25
2018-02-27T12:25:14.891Z,-1.16
2018-02-27T12:26:14.877Z,-1.07
2018-02-27T12:27:14.900Z,-1.02
2018-02-27T12:28:14.853Z,-0.94
2018-02-27T12:29:14.879Z,-1.02
2018-02-27T12:30:14.831Z,-0.94
2018-02-27T12:31:14.817Z,-0.86
2018-02-27T12:32:14.806Z,-0.79
2018-02-27T12:33:14.795Z,-0.69
2018-02-27T12:34:14.785Z,-0.89
2018-02-27T12:35:14.771Z,-0.99
2018-02-27T12:36:14.759Z,-0.95
2018-02-27T12:37:14.750Z,-1.20
2018-02-27T12:38:14.733Z,-0.99
2018-02-27T12:39:14.725Z,-1.23
2018-02-27T12:40:14.712Z,-1.34
2018-02-27T12:41:14.703Z,-1.31
2018-02-27T12:42:14.686Z,-1.22